createdAt,value
2022-10-19T00:03:39.630Z,11.2
2022-10-19T00:06:02.676Z,11.3
2022-10-19T00:08:43.281Z,11.2
2022-10-19T00:11:13.868Z,11.2
2022-10-19T00:13:44.483Z,11.2
2022-10-19T00:16:15.083Z,11.3
2022-10-19T00:18:45.670Z,11.3
2022-10-19T00:21:36.286Z,11.3
2022-10-19T00:24:07.028Z,11.4
2022-10-19T00:26:37.625Z,11.4
2022-10-19T00:29:08.327Z,11.4
2022-10-19T00:31:38.940Z,11.4
2022-10-19T00:34:09.543Z,11.4
2022-10-19T00:36:50.158Z,11.4
2022-10-19T00:39:20.761Z,11.3
2022-10-19T00:44:21.552Z,11.3
2022-10-19T00:46:52.102Z,11.3
2022-10-19T00:49:22.748Z,11.3
2022-10-19T00:52:03.347Z,11.3
2022-10-19T00:54:33.943Z,11.3
2022-10-19T00:57:04.531Z,11.2
2022-10-19T00:59:35.119Z,11.2
2022-10-19T01:02:05.710Z,11.2
2022-10-19T01:04:36.305Z,11.3
2022-10-19T01:07:16.905Z,11.2
2022-10-19T01:09:48.010Z,11.2
2022-10-19T01:12:18.615Z,11.2
2022-10-19T01:14:49.221Z,11.2
2022-10-19T01:17:19.798Z,11.2
2022-10-19T01:19:50.491Z,11.2
2022-10-19T01:25:01.247Z,11.2
2022-10-19T01:27:32.113Z,11.2
2022-10-19T01:30:02.930Z,11.2
2022-10-19T01:32:33.522Z,11.2
2022-10-19T01:35:04.104Z,11.2
2022-10-19T01:37:44.721Z,11.2
2022-10-19T01:40:15.340Z,11.2
2022-10-19T01:42:45.997Z,11.2
2022-10-19T01:45:16.632Z,11.2
2022-10-19T01:47:47.227Z,11.2
2022-10-19T01:50:27.840Z,11.2
2022-10-19T01:52:58.428Z,11.2
2022-10-19T01:55:29.029Z,11.2
2022-10-19T01:57:59.581Z,11.1
2022-10-19T02:00:30.318Z,11.1
2022-10-19T02:05:41.382Z,10.9
2022-10-19T02:08:12.001Z,10.8
2022-10-19T02:10:42.600Z,10.9
2022-10-19T02:13:13.215Z,10.8
2022-10-19T02:15:44.059Z,10.6
2022-10-19T02:18:14.600Z,10.4
2022-10-19T02:20:55.198Z,10.3
2022-10-19T02:23:25.797Z,10.2
2022-10-19T02:25:59.571Z,10.1
2022-10-19T02:28:30.155Z,10.0
2022-10-19T02:31:00.733Z,9.8
2022-10-19T02:36:11.486Z,9.7
2022-10-19T02:38:42.109Z,9.7
2022-10-19T02:41:13.208Z,9.7
2022-10-19T02:46:13.949Z,9.6
2022-10-19T02:48:54.646Z,9.8
2022-10-19T02:51:25.225Z,9.9
2022-10-19T02:53:55.831Z,10.0
2022-10-19T02:56:26.567Z,10.0
2022-10-19T02:58:57.135Z,10.0
2022-10-19T03:01:27.813Z,10.0
2022-10-19T03:04:08.436Z,10.0
2022-10-19T03:06:39.013Z,10.0
2022-10-19T03:09:09.604Z,10.0
2022-10-19T03:11:40.197Z,10.0
2022-10-19T03:14:10.790Z,10.0
2022-10-19T03:16:41.375Z,10.0
2022-10-19T03:19:21.967Z,10.0
2022-10-19T03:21:52.557Z,9.9
2022-10-19T03:26:53.315Z,9.7
2022-10-19T03:29:23.923Z,9.6
2022-10-19T03:31:54.508Z,9.6
2022-10-19T03:34:45.102Z,9.6
2022-10-19T03:37:15.681Z,9.6
2022-10-19T03:39:46.765Z,9.6
2022-10-19T03:42:17.365Z,9.5
2022-10-19T03:44:47.960Z,9.5
2022-10-19T03:47:28.561Z,9.6
2022-10-19T03:49:59.159Z,9.6
2022-10-19T03:52:29.752Z,9.6
2022-10-19T03:55:00.440Z,9.5
2022-10-19T03:57:31.115Z,9.5
2022-10-19T04:00:01.964Z,9.5
2022-10-19T04:02:42.562Z,9.4
2022-10-19T04:07:43.311Z,9.4
2022-10-19T04:10:13.904Z,9.4
2022-10-19T04:12:44.482Z,9.4
2022-10-19T04:15:15.085Z,9.4
2022-10-19T04:17:55.677Z,9.4
2022-10-19T04:20:26.245Z,9.4
2022-10-19T04:22:56.815Z,9.4
2022-10-19T04:25:27.522Z,9.4
2022-10-19T04:27:58.126Z,9.3
2022-10-19T04:30:28.743Z,9.3
2022-10-19T04:33:09.355Z,9.3
2022-10-19T04:35:39.934Z,9.3
2022-10-19T04:38:10.521Z,9.3
2022-10-19T04:40:41.093Z,9.3
2022-10-19T04:43:11.681Z,9.3
2022-10-19T04:48:22.412Z,9.3
2022-10-19T04:50:53.018Z,9.2
2022-10-19T04:55:55.213Z,9.1
2022-10-19T04:58:25.808Z,9.1
2022-10-19T05:01:06.469Z,9.1
2022-10-19T05:03:37.183Z,9.0
2022-10-19T05:06:07.811Z,9.0
2022-10-19T05:08:38.417Z,9.0
2022-10-19T05:11:09.000Z,8.9
2022-10-19T05:13:39.594Z,8.9
2022-10-19T05:16:20.209Z,8.9
2022-10-19T05:21:20.954Z,8.9
2022-10-19T05:23:51.546Z,8.8
2022-10-19T05:28:52.292Z,8.8
2022-10-19T05:31:33.027Z,8.8
2022-10-19T05:34:03.699Z,8.8
2022-10-19T05:36:34.305Z,8.8
2022-10-19T05:39:04.918Z,8.8
2022-10-19T05:41:35.498Z,8.8
2022-10-19T05:44:06.080Z,8.8
2022-10-19T05:46:46.719Z,8.8
2022-10-19T05:51:47.448Z,8.7
2022-10-19T05:54:18.070Z,8.7
2022-10-19T05:56:49.285Z,8.6
2022-10-19T05:59:29.891Z,8.6
2022-10-19T06:02:00.506Z,8.7
2022-10-19T06:04:31.217Z,8.7
2022-10-19T06:09:41.989Z,8.6
2022-10-19T06:12:12.581Z,8.6
2022-10-19T06:17:17.221Z,8.6
2022-10-19T06:19:47.801Z,8.6
2022-10-19T06:22:18.385Z,8.6
2022-10-19T06:24:48.973Z,8.6
2022-10-19T06:27:19.595Z,8.6
2022-10-19T06:30:00.326Z,8.7
2022-10-19T06:32:30.956Z,8.7
2022-10-19T06:35:01.733Z,8.8
2022-10-19T06:37:32.529Z,8.7
2022-10-19T06:40:06.827Z,8.7
2022-10-19T06:42:38.015Z,8.7
2022-10-19T06:45:18.604Z,8.7
2022-10-19T06:50:15.386Z,8.6
2022-10-19T06:52:45.993Z,8.7
2022-10-19T06:55:16.595Z,8.7
2022-10-19T06:57:57.169Z,8.7
2022-10-19T07:00:27.791Z,8.6
2022-10-19T07:02:58.540Z,8.7
2022-10-19T07:05:39.141Z,8.5
2022-10-19T07:08:09.751Z,8.6
2022-10-19T07:10:40.369Z,8.7
2022-10-19T07:13:21.031Z,8.7
2022-10-19T07:15:51.653Z,8.6
2022-10-19T07:18:18.079Z,8.6
2022-10-19T07:20:48.654Z,8.8
2022-10-19T07:23:19.238Z,8.8
2022-10-19T07:25:49.841Z,8.9
2022-10-19T07:31:00.598Z,9.2
2022-10-19T07:33:31.171Z,9.1
2022-10-19T07:36:01.765Z,9.1
2022-10-19T07:38:32.362Z,9.2
2022-10-19T07:41:02.954Z,9.2
2022-10-19T07:43:43.557Z,9.4
2022-10-19T07:46:14.140Z,9.5
2022-10-19T07:48:44.753Z,9.4
2022-10-19T07:51:15.345Z,9.5
2022-10-19T07:53:46.063Z,9.6
2022-10-19T07:56:16.629Z,9.6
2022-10-19T07:58:57.244Z,9.6
2022-10-19T08:01:27.827Z,9.6
2022-10-19T08:06:28.726Z,9.7
2022-10-19T08:11:39.511Z,9.9
2022-10-19T08:14:20.122Z,9.9
2022-10-19T08:16:50.710Z,10.0
2022-10-19T08:19:21.305Z,10.2
2022-10-19T08:21:51.888Z,10.2
2022-10-19T08:24:22.487Z,10.4
2022-10-19T08:27:03.106Z,10.5
2022-10-19T08:29:33.763Z,10.6
2022-10-19T08:32:04.719Z,10.8
2022-10-19T08:34:35.296Z,10.9
2022-10-19T08:37:10.067Z,11.0
2022-10-19T08:39:35.027Z,11.1
2022-10-19T08:42:15.634Z,11.3
2022-10-19T08:44:46.686Z,11.4
2022-10-19T08:47:18.651Z,11.6
2022-10-19T08:52:21.954Z,11.8
2022-10-19T08:57:25.796Z,11.9
2022-10-19T08:59:56.902Z,12.0
2022-10-19T09:02:27.543Z,12.0
2022-10-19T09:04:58.146Z,12.0
2022-10-19T09:07:28.737Z,12.1
2022-10-19T09:09:59.337Z,12.1
2022-10-19T09:12:39.986Z,12.2
2022-10-19T09:15:15.423Z,12.3
2022-10-19T09:17:46.030Z,12.3
2022-10-19T09:20:16.617Z,12.4
2022-10-19T09:22:47.196Z,12.4
2022-10-19T09:25:23.300Z,12.4
2022-10-19T09:27:53.932Z,12.4
2022-10-19T09:32:54.697Z,12.4
2022-10-19T09:35:25.969Z,12.6
2022-10-19T09:37:56.581Z,12.6
2022-10-19T09:40:37.227Z,12.7
2022-10-19T09:43:07.837Z,12.8
2022-10-19T09:45:38.400Z,12.8
2022-10-19T09:48:19.007Z,13.0
2022-10-19T09:50:49.595Z,13.0
2022-10-19T09:53:20.195Z,13.0
2022-10-19T09:56:00.800Z,13.1
2022-10-19T09:58:32.849Z,13.1
2022-10-19T10:00:53.922Z,13.2
2022-10-19T10:03:24.540Z,13.1
2022-10-19T10:05:55.127Z,12.9
2022-10-19T10:08:25.858Z,12.9
2022-10-19T10:13:36.881Z,12.8
2022-10-19T10:16:07.459Z,12.8
2022-10-19T10:18:48.060Z,12.7
2022-10-19T10:21:20.551Z,12.6
2022-10-19T10:23:53.566Z,12.6
2022-10-19T10:26:24.201Z,12.6
2022-10-19T10:28:56.614Z,12.6
2022-10-19T10:31:29.854Z,12.8
2022-10-19T10:34:02.922Z,12.9
2022-10-19T10:36:30.819Z,13.0
2022-10-19T10:39:11.431Z,13.2
2022-10-19T10:41:42.050Z,13.3
2022-10-19T10:44:12.659Z,13.4
2022-10-19T10:46:43.222Z,13.3
2022-10-19T10:54:24.226Z,13.4
2022-10-19T10:56:54.819Z,13.5
2022-10-19T10:59:27.490Z,13.5
2022-10-19T11:01:52.015Z,13.6
2022-10-19T11:04:22.982Z,13.5
2022-10-19T11:06:55.050Z,13.6
2022-10-19T11:09:35.650Z,13.6
2022-10-19T11:12:06.243Z,13.7
2022-10-19T11:14:36.879Z,14.0
2022-10-19T11:17:07.476Z,14.3
2022-10-19T11:19:38.058Z,14.4
2022-10-19T11:22:08.657Z,14.6
2022-10-19T11:24:53.276Z,14.4
2022-10-19T11:27:23.867Z,14.5
2022-10-19T11:29:54.966Z,14.7
2022-10-19T11:34:55.713Z,14.6
2022-10-19T11:37:39.559Z,14.5
2022-10-19T11:40:10.680Z,14.4
2022-10-19T11:42:42.846Z,14.4
2022-10-19T11:45:13.480Z,14.3
2022-10-19T11:47:44.074Z,14.3
2022-10-19T11:50:14.733Z,14.2
2022-10-19T11:52:48.762Z,14.0
2022-10-19T11:55:19.365Z,14.0
2022-10-19T11:57:49.936Z,13.9
2022-10-19T12:00:37.977Z,13.8
2022-10-19T12:03:02.815Z,13.9
2022-10-19T12:05:24.131Z,13.9
2022-10-19T12:08:04.748Z,13.8
2022-10-19T12:10:35.565Z,13.8
2022-10-19T12:15:36.321Z,13.8
2022-10-19T12:18:06.929Z,13.8
2022-10-19T12:20:37.525Z,13.9
2022-10-19T12:23:18.116Z,14.0
2022-10-19T12:25:48.709Z,14.2
2022-10-19T12:28:19.417Z,14.5
2022-10-19T12:30:49.986Z,14.6
2022-10-19T12:33:20.553Z,14.6
2022-10-19T12:36:01.159Z,14.6
2022-10-19T12:38:31.777Z,14.4
2022-10-19T12:41:10.366Z,14.5
2022-10-19T12:43:40.957Z,14.3
2022-10-19T12:46:11.531Z,14.1
2022-10-19T12:48:42.115Z,13.9
2022-10-19T12:51:22.744Z,13.9
2022-10-19T12:56:23.508Z,13.9
2022-10-19T12:58:54.104Z,13.9
2022-10-19T13:01:24.688Z,14.0
2022-10-19T13:03:55.308Z,14.1
2022-10-19T13:06:35.918Z,14.2
2022-10-19T13:09:06.578Z,14.1
2022-10-19T13:11:37.224Z,13.7
2022-10-19T13:14:07.840Z,13.6
2022-10-19T13:16:38.415Z,13.6
2022-10-19T13:19:09.153Z,13.6
2022-10-19T13:21:49.746Z,13.6
2022-10-19T13:24:20.349Z,13.5
2022-10-19T13:26:51.130Z,13.4
2022-10-19T13:29:21.770Z,13.3
2022-10-19T13:31:53.762Z,13.3
2022-10-19T13:39:35.225Z,13.5
2022-10-19T13:42:05.810Z,13.6
2022-10-19T13:44:36.402Z,13.6
2022-10-19T13:47:07.002Z,13.7
2022-10-19T13:49:47.624Z,13.8
2022-10-19T13:52:18.202Z,13.9
2022-10-19T13:54:48.786Z,13.9
2022-10-19T13:57:19.360Z,14.0
2022-10-19T13:59:49.945Z,14.0
2022-10-19T14:02:20.574Z,14.1
2022-10-19T14:05:01.175Z,14.1
2022-10-19T14:07:31.977Z,14.2
2022-10-19T14:10:02.724Z,14.2
2022-10-19T14:12:33.186Z,14.3
2022-10-19T14:17:34.263Z,14.1
2022-10-19T14:20:15.272Z,14.1
2022-10-19T14:22:45.844Z,14.1
2022-10-19T14:25:16.445Z,14.3
2022-10-19T14:27:47.094Z,14.3
2022-10-19T14:30:17.695Z,14.1
2022-10-19T14:32:48.273Z,14.0
2022-10-19T14:35:32.870Z,14.0
2022-10-19T14:38:03.461Z,14.3
2022-10-19T14:40:34.075Z,14.2
2022-10-19T14:43:04.674Z,14.2
2022-10-19T14:45:35.806Z,14.4
2022-10-19T14:48:16.373Z,14.4
2022-10-19T14:50:46.992Z,14.4
2022-10-19T14:53:17.598Z,14.4
2022-10-19T14:58:18.355Z,14.2
2022-10-19T15:00:49.189Z,14.0
2022-10-19T15:03:29.784Z,13.6
2022-10-19T15:06:03.993Z,13.6
2022-10-19T15:08:34.676Z,13.4
2022-10-19T15:11:05.509Z,13.2
2022-10-19T15:13:36.121Z,13.1
2022-10-19T15:16:06.719Z,13.1
2022-10-19T15:18:49.120Z,13.0
2022-10-19T15:21:12.428Z,12.9
2022-10-19T15:23:43.897Z,12.8
2022-10-19T15:26:17.090Z,12.8
2022-10-19T15:28:47.861Z,12.7
2022-10-19T15:31:18.463Z,12.7
2022-10-19T15:33:59.044Z,12.6
2022-10-19T15:39:05.970Z,12.4
2022-10-19T15:41:28.468Z,12.4
2022-10-19T15:43:59.075Z,12.3
2022-10-19T15:46:29.702Z,12.2
2022-10-19T15:51:40.471Z,12.0
2022-10-19T15:54:11.070Z,11.9
2022-10-19T15:56:41.680Z,11.8
2022-10-19T15:59:12.370Z,11.7
2022-10-19T16:01:56.002Z,11.6
2022-10-19T16:04:26.933Z,11.6
2022-10-19T16:09:27.657Z,11.4
2022-10-19T16:11:58.237Z,11.3
2022-10-19T16:14:29.931Z,11.2
2022-10-19T16:22:12.807Z,10.8
2022-10-19T16:24:43.413Z,10.6
2022-10-19T16:27:14.008Z,10.4
2022-10-19T16:29:45.081Z,10.4
2022-10-19T16:32:25.670Z,10.3
2022-10-19T16:34:56.286Z,10.3
2022-10-19T16:37:26.883Z,10.2
2022-10-19T16:39:57.876Z,10.2
2022-10-19T16:42:29.799Z,10.0
2022-10-19T16:45:01.307Z,10.0
2022-10-19T16:47:41.896Z,9.9
2022-10-19T16:50:12.488Z,9.8
2022-10-19T16:52:43.227Z,9.8
2022-10-19T16:55:13.840Z,9.5
2022-10-19T17:00:24.599Z,9.4
2022-10-19T17:02:55.170Z,9.3
2022-10-19T17:05:25.782Z,9.3
2022-10-19T17:07:56.385Z,9.2
2022-10-19T17:10:27.008Z,9.1
2022-10-19T17:12:57.630Z,9.0
2022-10-19T17:15:42.741Z,8.4
2022-10-19T17:18:13.840Z,8.3
2022-10-19T17:20:44.465Z,8.2
2022-10-19T17:23:16.115Z,8.0
2022-10-19T17:25:46.721Z,8.0
2022-10-19T17:28:17.302Z,8.1
2022-10-19T17:30:58.295Z,8.2
2022-10-19T17:33:28.933Z,8.3
2022-10-19T17:35:59.513Z,8.2
2022-10-19T17:41:00.251Z,8.3
2022-10-19T17:43:30.861Z,8.2
2022-10-19T17:46:11.461Z,8.1
2022-10-19T17:48:42.041Z,8.0
2022-10-19T17:51:12.611Z,8.0
2022-10-19T17:53:43.188Z,7.9
2022-10-19T17:56:13.776Z,7.9
2022-10-19T17:58:44.379Z,8.0
2022-10-19T18:01:24.977Z,8.0
2022-10-19T18:03:55.589Z,8.0
2022-10-19T18:06:26.156Z,8.0
2022-10-19T18:08:56.789Z,8.0
2022-10-19T18:11:27.487Z,8.0
2022-10-19T18:14:08.095Z,8.0
2022-10-19T18:16:38.682Z,7.9
2022-10-19T18:21:39.447Z,7.7
2022-10-19T18:24:11.286Z,7.6
2022-10-19T18:26:44.954Z,7.5
2022-10-19T18:29:25.584Z,7.4
2022-10-19T18:31:56.236Z,7.3
2022-10-19T18:36:57.067Z,7.2
2022-10-19T18:39:27.677Z,7.0
2022-10-19T18:41:58.273Z,7.0
2022-10-19T18:44:38.893Z,7.0
2022-10-19T18:47:09.484Z,6.9
2022-10-19T18:49:40.053Z,6.9
2022-10-19T18:52:10.638Z,6.8
2022-10-19T18:54:41.256Z,6.8
2022-10-19T18:57:11.849Z,6.7
2022-10-19T19:02:28.299Z,6.7
2022-10-19T19:04:57.536Z,6.7
2022-10-19T19:07:28.130Z,6.6
2022-10-19T19:09:58.739Z,6.6
2022-10-19T19:12:39.361Z,6.6
2022-10-19T19:15:09.935Z,6.6
2022-10-19T19:17:40.546Z,6.6
2022-10-19T19:20:11.146Z,6.6
2022-10-19T19:22:41.738Z,6.6
2022-10-19T19:25:12.340Z,6.6
2022-10-19T19:27:52.927Z,6.6
2022-10-19T19:30:23.550Z,6.7
2022-10-19T19:32:54.134Z,6.7
2022-10-19T19:35:24.714Z,6.7
2022-10-19T19:37:55.272Z,6.7
2022-10-19T19:43:06.025Z,6.6
2022-10-19T19:45:36.641Z,6.6
2022-10-19T19:48:07.331Z,6.7
2022-10-19T19:50:37.913Z,6.8
2022-10-19T19:53:08.515Z,6.8
2022-10-19T19:55:39.212Z,6.8
2022-10-19T19:58:19.924Z,6.8
2022-10-19T20:00:50.509Z,6.8
2022-10-19T20:03:23.014Z,6.7
2022-10-19T20:05:53.617Z,6.5
2022-10-19T20:08:24.282Z,6.5
2022-10-19T20:10:55.033Z,6.4
2022-10-19T20:13:35.638Z,6.4
2022-10-19T20:16:06.427Z,6.4
2022-10-19T20:18:39.730Z,6.2
2022-10-19T20:23:40.465Z,6.0
2022-10-19T20:26:21.082Z,6.0
2022-10-19T20:28:51.698Z,5.9
2022-10-19T20:31:22.331Z,5.8
2022-10-19T20:33:52.980Z,5.8
2022-10-19T20:36:23.559Z,5.7
2022-10-19T20:38:54.163Z,5.7
2022-10-19T20:41:34.787Z,5.8
2022-10-19T20:44:05.410Z,5.8
2022-10-19T20:46:35.990Z,5.7
2022-10-19T20:49:06.569Z,5.7
2022-10-19T20:51:37.145Z,5.6
2022-10-19T20:54:07.770Z,5.5
2022-10-19T20:56:48.353Z,5.5
2022-10-19T20:59:18.955Z,5.5
2022-10-19T21:04:19.669Z,5.4
2022-10-19T21:06:50.276Z,5.4
2022-10-19T21:09:20.875Z,5.2
2022-10-19T21:12:01.465Z,5.2
2022-10-19T21:14:32.101Z,5.2
2022-10-19T21:17:02.702Z,5.1
2022-10-19T21:19:33.366Z,5.1
2022-10-19T21:22:07.677Z,4.9
2022-10-19T21:24:48.286Z,4.9
2022-10-19T21:27:18.950Z,4.9
2022-10-19T21:29:49.555Z,4.9
2022-10-19T21:32:20.163Z,4.9
2022-10-19T21:34:50.735Z,4.9
2022-10-19T21:37:21.314Z,4.9
2022-10-19T21:40:01.942Z,4.9
2022-10-19T21:45:18.144Z,4.8
2022-10-19T21:47:29.220Z,4.7
2022-10-19T21:49:59.811Z,4.7
2022-10-19T21:52:30.386Z,4.7
2022-10-19T21:55:11.021Z,4.7
2022-10-19T21:57:41.618Z,4.9
2022-10-19T22:00:12.235Z,5.1
2022-10-19T22:02:42.832Z,5.2
2022-10-19T22:05:13.555Z,5.2
2022-10-19T22:07:44.144Z,5.3
2022-10-19T22:10:24.794Z,5.3
2022-10-19T22:12:55.364Z,5.5
2022-10-19T22:15:35.968Z,5.6
2022-10-19T22:18:06.560Z,5.6
2022-10-19T22:20:37.155Z,5.5
2022-10-19T22:25:47.911Z,5.5
2022-10-19T22:28:18.496Z,5.5
2022-10-19T22:30:49.079Z,5.5
2022-10-19T22:33:19.687Z,5.5
2022-10-19T22:35:50.275Z,5.5
2022-10-19T22:38:30.876Z,5.5
2022-10-19T22:41:01.449Z,5.5
2022-10-19T22:43:32.056Z,5.6
2022-10-19T22:46:02.640Z,5.6
2022-10-19T22:48:33.249Z,5.6
2022-10-19T22:51:03.834Z,5.6
2022-10-19T22:53:44.463Z,5.6
2022-10-19T22:56:15.054Z,5.6
2022-10-19T22:58:45.660Z,5.6
2022-10-19T23:01:16.306Z,5.6
2022-10-19T23:06:17.231Z,5.6
2022-10-19T23:08:57.921Z,5.6
2022-10-19T23:11:28.541Z,5.6
2022-10-19T23:13:59.129Z,5.6
2022-10-19T23:16:29.721Z,5.6
2022-10-19T23:19:00.345Z,5.6
2022-10-19T23:21:30.953Z,5.6
2022-10-19T23:24:11.548Z,5.6
2022-10-19T23:26:42.122Z,5.6
2022-10-19T23:29:12.727Z,5.6
2022-10-19T23:31:43.330Z,5.7
2022-10-19T23:34:13.931Z,5.7
2022-10-19T23:36:55.619Z,5.7
2022-10-19T23:39:26.235Z,5.7
2022-10-19T23:41:56.840Z,5.7
2022-10-19T23:46:57.574Z,5.7
2022-10-19T23:49:28.138Z,5.7
2022-10-19T23:52:08.731Z,5.7
2022-10-19T23:54:39.327Z,5.8
2022-10-19T23:57:09.919Z,5.8
2022-10-19T23:59:40.506Z,5.8
